createdAt,value
2023-03-19T00:02:08.931Z,11.16
2023-03-19T00:04:18.687Z,11.13
2023-03-19T00:06:22.828Z,11.11
2023-03-19T00:08:27.371Z,11.12
2023-03-19T00:10:30.505Z,11.14
2023-03-19T00:12:33.737Z,11.15
2023-03-19T00:14:36.818Z,11.16
2023-03-19T00:16:40.389Z,11.15
2023-03-19T00:18:43.657Z,11.15
2023-03-19T00:20:46.884Z,11.14
2023-03-19T00:22:50.105Z,11.16
2023-03-19T00:24:54.712Z,11.16
2023-03-19T00:26:57.803Z,11.14
2023-03-19T00:29:02.555Z,11.13
2023-03-19T00:31:10.268Z,11.12
2023-03-19T00:33:13.858Z,11.07
2023-03-19T00:35:17.037Z,11.04
2023-03-19T00:37:20.164Z,11.03
2023-03-19T00:39:23.263Z,11.02
2023-03-19T00:41:28.960Z,11.03
2023-03-19T00:43:32.081Z,11.01
2023-03-19T00:45:35.360Z,11.01
2023-03-19T00:47:38.605Z,10.99
2023-03-19T00:49:41.694Z,10.98
2023-03-19T00:51:45.862Z,10.98
2023-03-19T00:53:50.084Z,10.95
2023-03-19T00:55:53.107Z,10.97
2023-03-19T00:57:57.464Z,10.93
2023-03-19T01:00:00.767Z,10.92
2023-03-19T01:02:04.653Z,10.90
2023-03-19T01:04:07.722Z,10.89
2023-03-19T01:06:11.511Z,10.88
2023-03-19T01:08:14.585Z,10.87
2023-03-19T01:10:18.992Z,10.84
2023-03-19T01:12:22.138Z,10.85
2023-03-19T01:14:26.674Z,10.82
2023-03-19T01:16:30.038Z,10.82
2023-03-19T01:18:33.356Z,10.83
2023-03-19T01:20:37.889Z,10.81
2023-03-19T01:22:42.609Z,10.82
2023-03-19T01:24:47.069Z,10.80
2023-03-19T01:26:50.828Z,10.79
2023-03-19T01:29:02.327Z,10.79
2023-03-19T01:31:09.567Z,10.77
2023-03-19T01:33:31.266Z,10.75
2023-03-19T01:35:40.178Z,10.76
2023-03-19T01:37:43.543Z,10.78
2023-03-19T01:39:47.553Z,10.79
2023-03-19T01:41:51.795Z,10.77
2023-03-19T01:44:26.041Z,10.76
2023-03-19T01:46:48.871Z,10.74
2023-03-19T01:49:28.493Z,10.75
2023-03-19T01:51:52.863Z,10.76
2023-03-19T01:54:11.514Z,10.76
2023-03-19T01:56:27.634Z,10.78
2023-03-19T01:58:37.919Z,10.77
2023-03-19T02:00:52.304Z,10.76
2023-03-19T02:03:01.615Z,10.73
2023-03-19T02:05:32.143Z,10.74
2023-03-19T02:07:42.564Z,10.78
2023-03-19T02:09:47.057Z,10.77
2023-03-19T02:11:51.245Z,10.75
2023-03-19T02:13:54.699Z,10.73
2023-03-19T02:15:59.036Z,10.72
2023-03-19T02:18:04.168Z,10.75
2023-03-19T02:20:13.015Z,10.75
2023-03-19T02:22:20.046Z,10.77
2023-03-19T02:24:26.976Z,10.77
2023-03-19T02:26:39.905Z,10.76
2023-03-19T02:28:45.827Z,10.74
2023-03-19T02:30:53.040Z,10.72
2023-03-19T02:32:57.157Z,10.72
2023-03-19T02:35:00.984Z,10.69
2023-03-19T02:37:09.473Z,10.70
2023-03-19T02:39:19.121Z,10.69
2023-03-19T02:41:26.275Z,10.66
2023-03-19T02:43:32.103Z,10.65
2023-03-19T02:45:35.500Z,10.65
2023-03-19T02:47:39.296Z,10.66
2023-03-19T02:49:43.119Z,10.66
2023-03-19T02:51:46.864Z,10.63
2023-03-19T02:53:50.418Z,10.62
2023-03-19T02:55:55.603Z,10.64
2023-03-19T02:57:59.292Z,10.63
2023-03-19T03:00:05.258Z,10.64
2023-03-19T03:02:10.204Z,10.64
2023-03-19T03:04:16.417Z,10.61
2023-03-19T03:06:20.981Z,10.61
2023-03-19T03:08:24.335Z,10.58
2023-03-19T03:10:28.526Z,10.57
2023-03-19T03:12:32.533Z,10.55
2023-03-19T03:14:36.213Z,10.53
2023-03-19T03:16:43.201Z,10.46
2023-03-19T03:18:47.265Z,10.45
2023-03-19T03:20:50.967Z,10.47
2023-03-19T03:22:54.880Z,10.47
2023-03-19T03:24:58.430Z,10.49
2023-03-19T03:27:02.128Z,10.57
2023-03-19T03:29:05.818Z,10.65
2023-03-19T03:31:09.281Z,10.69
2023-03-19T03:33:17.395Z,10.71
2023-03-19T03:35:22.620Z,10.75
2023-03-19T03:37:26.561Z,10.77
2023-03-19T03:39:30.625Z,10.80
2023-03-19T03:41:34.669Z,10.87
2023-03-19T03:43:39.518Z,10.91
2023-03-19T03:45:43.177Z,10.94
2023-03-19T03:47:47.507Z,10.94
2023-03-19T03:49:52.955Z,10.96
2023-03-19T03:51:57.470Z,10.98
2023-03-19T03:54:01.287Z,11.02
2023-03-19T03:56:05.177Z,11.05
2023-03-19T03:58:08.557Z,11.05
2023-03-19T04:00:12.981Z,11.05
2023-03-19T04:02:20.878Z,11.05
2023-03-19T04:04:24.089Z,11.05
2023-03-19T04:06:28.900Z,10.95
2023-03-19T04:08:48.800Z,10.91
2023-03-19T04:10:52.219Z,10.86
2023-03-19T04:12:55.527Z,10.84
2023-03-19T04:14:58.983Z,10.86
2023-03-19T04:17:02.127Z,10.91
2023-03-19T04:19:05.266Z,10.91
2023-03-19T04:21:08.998Z,10.91
2023-03-19T04:23:13.946Z,10.91
2023-03-19T04:25:18.459Z,10.89
2023-03-19T04:27:22.066Z,10.84
2023-03-19T04:29:25.533Z,10.76
2023-03-19T04:31:28.732Z,10.75
2023-03-19T04:33:32.311Z,10.69
2023-03-19T04:35:35.621Z,10.66
2023-03-19T04:37:39.008Z,10.64
2023-03-19T04:39:44.404Z,10.62
2023-03-19T04:41:50.358Z,10.60
2023-03-19T04:44:07.683Z,10.60
2023-03-19T04:46:11.909Z,10.58
2023-03-19T04:48:14.977Z,10.60
2023-03-19T04:50:19.074Z,10.60
2023-03-19T04:52:22.618Z,10.58
2023-03-19T04:54:26.297Z,10.56
2023-03-19T04:56:30.721Z,10.58
2023-03-19T04:58:33.995Z,10.57
2023-03-19T05:00:39.269Z,10.60
2023-03-19T05:02:43.405Z,10.60
2023-03-19T05:04:46.728Z,10.59
2023-03-19T05:06:51.321Z,10.61
2023-03-19T05:08:54.524Z,10.60
2023-03-19T05:10:58.593Z,10.60
2023-03-19T05:13:06.867Z,10.61
2023-03-19T05:15:13.843Z,10.65
2023-03-19T05:17:29.026Z,10.64
2023-03-19T05:19:50.417Z,10.62
2023-03-19T05:21:53.746Z,10.60
2023-03-19T05:24:00.466Z,10.57
2023-03-19T05:26:06.699Z,10.49
2023-03-19T05:28:49.651Z,10.53
2023-03-19T05:30:56.940Z,10.51
2023-03-19T05:33:05.194Z,10.57
2023-03-19T05:35:17.662Z,10.60
2023-03-19T05:37:21.643Z,10.56
2023-03-19T05:39:30.717Z,10.58
2023-03-19T05:41:38.383Z,10.59
2023-03-19T05:43:43.181Z,10.61
2023-03-19T05:45:56.798Z,10.63
2023-03-19T05:48:04.227Z,10.65
2023-03-19T05:50:13.152Z,10.66
2023-03-19T05:52:22.736Z,10.67
2023-03-19T05:54:27.059Z,10.71
2023-03-19T05:56:42.576Z,10.74
2023-03-19T05:59:11.664Z,10.79
2023-03-19T06:01:20.819Z,10.77
2023-03-19T06:03:24.190Z,10.77
2023-03-19T06:05:28.688Z,10.77
2023-03-19T06:07:37.070Z,10.75
2023-03-19T06:09:43.581Z,10.75
2023-03-19T06:11:47.693Z,10.76
2023-03-19T06:14:17.054Z,10.76
2023-03-19T06:16:32.324Z,10.78
2023-03-19T06:18:36.574Z,10.78
2023-03-19T06:20:45.494Z,10.78
2023-03-19T06:22:49.426Z,10.81
2023-03-19T06:24:52.652Z,10.81
2023-03-19T06:26:56.310Z,10.81
2023-03-19T06:28:59.517Z,10.77
2023-03-19T06:31:02.670Z,10.77
2023-03-19T06:33:27.757Z,10.78
2023-03-19T06:35:31.189Z,10.80
2023-03-19T06:37:34.624Z,10.82
2023-03-19T06:39:38.235Z,10.85
2023-03-19T06:41:41.575Z,10.86
2023-03-19T06:43:52.385Z,10.87
2023-03-19T06:45:55.734Z,10.92
2023-03-19T06:47:58.988Z,10.95
2023-03-19T06:50:04.487Z,11.01
2023-03-19T06:52:07.869Z,11.03
2023-03-19T06:54:11.226Z,11.08
2023-03-19T06:56:14.257Z,11.13
2023-03-19T06:58:17.345Z,11.21
2023-03-19T07:00:21.249Z,11.28
2023-03-19T07:02:24.570Z,11.34
2023-03-19T07:04:27.720Z,11.39
2023-03-19T07:06:33.644Z,11.45
2023-03-19T07:08:36.689Z,11.53
2023-03-19T07:10:39.921Z,11.65
2023-03-19T07:12:43.062Z,11.75
2023-03-19T07:14:47.248Z,11.88
2023-03-19T07:16:50.287Z,11.97
2023-03-19T07:18:53.442Z,12.06
2023-03-19T07:20:56.567Z,12.12
2023-03-19T07:23:01.247Z,12.20
2023-03-19T07:25:04.532Z,12.23
2023-03-19T07:27:07.649Z,12.33
2023-03-19T07:29:11.199Z,12.45
2023-03-19T07:31:14.418Z,12.53
2023-03-19T07:33:17.789Z,12.63
2023-03-19T07:35:21.409Z,12.72
2023-03-19T07:37:24.413Z,12.75
2023-03-19T07:39:28.774Z,12.77
2023-03-19T07:41:32.113Z,12.80
2023-03-19T07:43:35.353Z,12.86
2023-03-19T07:45:38.560Z,12.95
2023-03-19T07:47:41.666Z,13.05
2023-03-19T07:49:44.772Z,13.16
2023-03-19T07:51:47.980Z,13.25
2023-03-19T07:53:51.139Z,13.34
2023-03-19T07:55:55.675Z,13.49
2023-03-19T07:57:58.840Z,13.69
2023-03-19T08:00:01.978Z,13.88
2023-03-19T08:02:05.335Z,13.99
2023-03-19T08:04:08.685Z,14.07
2023-03-19T08:06:12.176Z,14.10
2023-03-19T08:08:15.413Z,14.12
2023-03-19T08:10:18.781Z,14.17
2023-03-19T08:12:23.277Z,14.20
2023-03-19T08:14:26.740Z,14.27
2023-03-19T08:16:30.029Z,14.30
2023-03-19T08:18:33.968Z,14.29
2023-03-19T08:20:37.178Z,14.33
2023-03-19T08:22:41.758Z,14.38
2023-03-19T08:24:44.957Z,14.44
2023-03-19T08:26:48.331Z,14.51
2023-03-19T08:28:53.361Z,14.58
2023-03-19T08:30:56.840Z,14.67
2023-03-19T08:33:00.271Z,14.72
2023-03-19T08:35:04.006Z,14.80
2023-03-19T08:37:10.086Z,14.84
2023-03-19T08:39:13.200Z,14.89
2023-03-19T08:41:16.355Z,14.93
2023-03-19T08:43:19.641Z,14.96
2023-03-19T08:45:24.326Z,14.98
2023-03-19T08:47:27.776Z,14.98
2023-03-19T08:49:31.033Z,14.96
2023-03-19T08:51:34.356Z,14.98
2023-03-19T08:53:38.674Z,15.02
2023-03-19T08:55:42.859Z,15.05
2023-03-19T08:57:45.949Z,15.07
2023-03-19T08:59:49.053Z,15.05
2023-03-19T09:01:54.387Z,15.06
2023-03-19T09:03:57.657Z,15.12
2023-03-19T09:06:01.551Z,15.20
2023-03-19T09:08:04.667Z,15.27
2023-03-19T09:10:08.839Z,15.26
2023-03-19T09:12:15.219Z,15.28
2023-03-19T09:14:20.107Z,15.36
2023-03-19T09:16:23.530Z,15.36
2023-03-19T09:18:28.365Z,15.38
2023-03-19T09:20:31.622Z,15.43
2023-03-19T09:22:34.864Z,15.39
2023-03-19T09:24:40.466Z,15.43
2023-03-19T09:26:43.854Z,15.46
2023-03-19T09:28:47.257Z,15.53
2023-03-19T09:30:51.797Z,15.62
2023-03-19T09:32:55.915Z,15.75
2023-03-19T09:35:00.480Z,15.87
2023-03-19T09:37:03.479Z,16.01
2023-03-19T09:39:07.380Z,16.14
2023-03-19T09:41:11.904Z,16.28
2023-03-19T09:43:36.003Z,16.47
2023-03-19T09:45:39.220Z,16.58
2023-03-19T09:47:43.412Z,16.67
2023-03-19T09:49:49.105Z,16.98
2023-03-19T09:51:55.177Z,17.12
2023-03-19T09:54:00.808Z,17.22
2023-03-19T09:56:06.762Z,17.43
2023-03-19T09:58:15.670Z,17.51
2023-03-19T10:00:23.991Z,17.53
2023-03-19T10:02:40.310Z,17.67
2023-03-19T10:04:53.996Z,17.86
2023-03-19T10:07:03.832Z,18.03
2023-03-19T10:09:33.863Z,18.26
2023-03-19T10:11:50.498Z,18.38
2023-03-19T10:14:00.611Z,18.41
2023-03-19T10:16:04.617Z,18.48
2023-03-19T10:18:11.613Z,18.54
2023-03-19T10:20:18.904Z,18.64
2023-03-19T10:22:27.222Z,18.77
2023-03-19T10:24:33.253Z,18.82
2023-03-19T10:26:36.637Z,18.98
2023-03-19T10:28:43.598Z,19.00
2023-03-19T10:30:53.149Z,19.12
2023-03-19T10:33:07.836Z,19.17
2023-03-19T10:35:18.945Z,19.17
2023-03-19T10:37:26.249Z,19.28
2023-03-19T10:39:29.669Z,19.32
2023-03-19T10:41:39.687Z,19.29
2023-03-19T10:43:43.428Z,19.25
2023-03-19T10:45:47.752Z,19.09
2023-03-19T10:47:51.567Z,19.15
2023-03-19T10:49:57.766Z,19.15
2023-03-19T10:52:01.025Z,19.16
2023-03-19T10:54:20.041Z,19.19
2023-03-19T10:56:24.719Z,19.29
2023-03-19T10:58:29.172Z,19.36
2023-03-19T11:00:35.277Z,19.32
2023-03-19T11:02:38.873Z,19.15
2023-03-19T11:04:41.927Z,19.11
2023-03-19T11:06:49.991Z,19.09
2023-03-19T11:08:57.135Z,19.04
2023-03-19T11:11:01.864Z,19.02
2023-03-19T11:13:07.288Z,19.09
2023-03-19T11:15:19.677Z,19.05
2023-03-19T11:17:24.361Z,19.02
2023-03-19T11:19:29.660Z,18.85
2023-03-19T11:21:32.992Z,18.77
2023-03-19T11:23:41.497Z,18.71
2023-03-19T11:25:48.866Z,18.69
2023-03-19T11:28:02.149Z,18.70
2023-03-19T11:30:14.245Z,18.72
2023-03-19T11:32:53.614Z,18.72
2023-03-19T11:35:00.103Z,18.69
2023-03-19T11:37:09.064Z,18.67
2023-03-19T11:39:22.986Z,18.69
2023-03-19T11:41:31.524Z,18.70
2023-03-19T11:43:46.153Z,18.69
2023-03-19T11:45:57.422Z,18.73
2023-03-19T11:48:13.998Z,18.88
2023-03-19T11:50:26.045Z,18.93
2023-03-19T11:52:32.044Z,18.92
2023-03-19T11:54:43.760Z,19.04
2023-03-19T11:56:50.159Z,19.13
2023-03-19T11:59:25.675Z,19.08
2023-03-19T12:01:43.594Z,18.96
2023-03-19T12:04:09.433Z,18.80
2023-03-19T12:06:20.829Z,18.66
2023-03-19T12:08:33.048Z,18.78
2023-03-19T12:10:47.661Z,18.90
2023-03-19T12:12:55.771Z,19.00
2023-03-19T12:15:08.660Z,19.06
2023-03-19T12:17:22.656Z,19.06
2023-03-19T12:19:50.488Z,19.05
2023-03-19T12:22:00.429Z,19.07
2023-03-19T12:24:05.952Z,19.11
2023-03-19T12:26:09.943Z,19.07
2023-03-19T12:28:19.509Z,18.94
2023-03-19T12:30:31.889Z,18.80
2023-03-19T12:32:46.481Z,18.76
2023-03-19T12:34:52.254Z,18.81
2023-03-19T12:37:00.539Z,18.89
2023-03-19T12:39:06.976Z,19.04
2023-03-19T12:41:12.547Z,19.10
2023-03-19T12:43:19.838Z,19.19
2023-03-19T12:45:31.018Z,19.29
2023-03-19T12:47:38.598Z,19.32
2023-03-19T12:49:43.935Z,19.24
2023-03-19T12:51:52.064Z,19.18
2023-03-19T12:53:57.836Z,19.11
2023-03-19T12:56:06.141Z,19.01
2023-03-19T12:58:15.631Z,18.95
2023-03-19T13:00:22.017Z,18.99
2023-03-19T13:02:32.154Z,19.07
2023-03-19T13:04:40.111Z,19.04
2023-03-19T13:06:49.251Z,18.97
2023-03-19T13:08:57.269Z,18.87
2023-03-19T13:11:00.806Z,18.78
2023-03-19T13:13:14.116Z,18.72
2023-03-19T13:15:21.552Z,18.63
2023-03-19T13:17:31.842Z,18.63
2023-03-19T13:19:41.428Z,18.66
2023-03-19T13:21:44.665Z,18.69
2023-03-19T13:23:49.754Z,18.72
2023-03-19T13:25:53.888Z,18.76
2023-03-19T13:27:57.220Z,18.72
2023-03-19T13:30:07.479Z,18.74
2023-03-19T13:32:26.682Z,18.70
2023-03-19T13:34:32.478Z,18.58
2023-03-19T13:36:38.276Z,18.42
2023-03-19T13:38:43.594Z,18.20
2023-03-19T13:40:48.971Z,18.07
2023-03-19T13:42:57.626Z,17.99
2023-03-19T13:45:03.974Z,17.84
2023-03-19T13:47:42.408Z,17.68
2023-03-19T13:50:05.661Z,17.51
2023-03-19T13:52:46.204Z,17.35
2023-03-19T13:54:53.979Z,17.25
2023-03-19T13:57:06.798Z,17.07
2023-03-19T13:59:25.167Z,16.93
2023-03-19T14:01:44.573Z,16.76
2023-03-19T14:03:56.159Z,16.64
2023-03-19T14:06:00.192Z,16.52
2023-03-19T14:08:17.126Z,16.37
2023-03-19T14:10:25.260Z,16.22
2023-03-19T14:12:33.060Z,16.12
2023-03-19T14:14:41.476Z,16.01
2023-03-19T14:16:47.502Z,15.93
2023-03-19T14:18:51.098Z,15.83
2023-03-19T14:21:06.399Z,15.72
2023-03-19T14:23:23.833Z,15.44
2023-03-19T14:25:55.084Z,15.38
2023-03-19T14:28:00.760Z,15.28
2023-03-19T14:30:11.192Z,15.27
2023-03-19T14:32:17.846Z,15.30
2023-03-19T14:34:22.864Z,15.37
2023-03-19T14:36:28.046Z,15.48
2023-03-19T14:38:37.499Z,15.57
2023-03-19T14:40:44.439Z,15.70
2023-03-19T14:42:57.560Z,15.80
2023-03-19T14:45:42.194Z,15.87
2023-03-19T14:48:25.300Z,15.89
2023-03-19T14:50:49.430Z,15.92
2023-03-19T14:52:59.282Z,15.95
2023-03-19T14:55:03.635Z,16.00
2023-03-19T14:57:10.202Z,16.02
2023-03-19T14:59:15.350Z,16.02
2023-03-19T15:01:19.298Z,16.03
2023-03-19T15:03:24.434Z,16.03
2023-03-19T15:05:30.603Z,16.02
2023-03-19T15:07:35.333Z,16.00
2023-03-19T15:09:39.984Z,15.98
2023-03-19T15:12:01.662Z,15.95
2023-03-19T15:14:44.111Z,15.93
2023-03-19T15:16:52.105Z,15.92
2023-03-19T15:18:55.583Z,15.84
2023-03-19T15:20:58.950Z,15.77
2023-03-19T15:23:05.803Z,15.74
2023-03-19T15:25:16.640Z,15.69
2023-03-19T15:27:21.362Z,15.68
2023-03-19T15:29:32.153Z,15.65
2023-03-19T15:32:04.442Z,15.63
2023-03-19T15:34:19.213Z,15.60
2023-03-19T15:36:25.966Z,15.60
2023-03-19T15:38:34.510Z,15.56
2023-03-19T15:40:39.571Z,15.54
2023-03-19T15:42:43.253Z,15.54
2023-03-19T15:44:49.610Z,15.58
2023-03-19T15:46:53.002Z,15.61
2023-03-19T15:48:59.495Z,15.63
2023-03-19T15:51:03.653Z,15.66
2023-03-19T15:53:09.462Z,15.66
2023-03-19T15:55:13.940Z,15.65
2023-03-19T15:57:19.038Z,15.64
2023-03-19T15:59:26.647Z,15.63
2023-03-19T16:01:31.268Z,15.64
2023-03-19T16:03:38.841Z,15.66
2023-03-19T16:05:42.073Z,15.60
2023-03-19T16:07:45.526Z,15.59
2023-03-19T16:09:48.708Z,15.58
2023-03-19T16:11:52.560Z,15.55
2023-03-19T16:13:59.116Z,15.54
2023-03-19T16:16:04.693Z,15.54
2023-03-19T16:18:11.326Z,15.55
2023-03-19T16:20:15.807Z,15.55
2023-03-19T16:22:22.225Z,15.58
2023-03-19T16:24:27.500Z,15.58
2023-03-19T16:26:32.845Z,15.56
2023-03-19T16:28:35.892Z,15.55
2023-03-19T16:30:47.328Z,15.54
2023-03-19T16:32:59.815Z,15.53
2023-03-19T16:35:06.194Z,15.50
2023-03-19T16:37:29.170Z,15.46
2023-03-19T16:39:36.449Z,15.43
2023-03-19T16:41:39.586Z,15.40
2023-03-19T16:43:46.233Z,15.35
2023-03-19T16:46:05.634Z,15.28
2023-03-19T16:48:09.724Z,15.20
2023-03-19T16:50:13.663Z,15.07
2023-03-19T16:52:19.478Z,14.90
2023-03-19T16:54:23.827Z,14.77
2023-03-19T16:56:27.045Z,14.68
2023-03-19T16:58:32.070Z,14.55
2023-03-19T17:00:35.783Z,14.36
2023-03-19T17:02:40.340Z,14.25
2023-03-19T17:04:43.670Z,14.14
2023-03-19T17:06:47.086Z,14.04
2023-03-19T17:08:50.399Z,13.93
2023-03-19T17:10:54.688Z,13.81
2023-03-19T17:12:58.155Z,13.68
2023-03-19T17:15:01.439Z,13.63
2023-03-19T17:17:04.654Z,13.55
2023-03-19T17:19:18.425Z,13.31
2023-03-19T17:21:23.760Z,13.24
2023-03-19T17:23:27.307Z,13.16
2023-03-19T17:25:30.682Z,12.98
2023-03-19T17:27:34.812Z,12.85
2023-03-19T17:29:37.955Z,12.85
2023-03-19T17:31:41.161Z,12.91
2023-03-19T17:33:44.247Z,13.00
2023-03-19T17:35:48.785Z,13.05
2023-03-19T17:37:52.616Z,13.10
2023-03-19T17:39:55.900Z,13.13
2023-03-19T17:41:59.173Z,13.14
2023-03-19T17:44:05.030Z,13.14
2023-03-19T17:46:12.704Z,13.15
2023-03-19T17:48:21.333Z,13.18
2023-03-19T17:50:26.613Z,13.21
2023-03-19T17:52:31.301Z,13.24
2023-03-19T17:54:34.410Z,13.26
2023-03-19T17:56:37.502Z,13.23
2023-03-19T17:58:40.629Z,13.17
2023-03-19T18:00:43.929Z,13.10
2023-03-19T18:02:47.802Z,13.07
2023-03-19T18:04:52.624Z,13.08
2023-03-19T18:06:57.408Z,13.07
2023-03-19T18:09:02.098Z,13.04
2023-03-19T18:11:05.345Z,13.04
2023-03-19T18:13:08.433Z,13.08
2023-03-19T18:15:12.380Z,13.09
2023-03-19T18:17:16.928Z,13.10
2023-03-19T18:19:32.082Z,13.10
2023-03-19T18:21:35.359Z,13.14
2023-03-19T18:23:38.550Z,13.14
2023-03-19T18:25:43.963Z,13.19
2023-03-19T18:27:47.206Z,13.21
2023-03-19T18:29:50.413Z,13.22
2023-03-19T18:31:53.817Z,13.23
2023-03-19T18:34:00.115Z,13.19
2023-03-19T18:36:03.535Z,13.11
2023-03-19T18:38:07.723Z,13.10
2023-03-19T18:40:15.670Z,13.10
2023-03-19T18:42:20.212Z,13.13
2023-03-19T18:44:24.188Z,13.13
2023-03-19T18:46:29.697Z,13.18
2023-03-19T18:48:33.788Z,13.19
2023-03-19T18:50:37.022Z,13.22
2023-03-19T18:52:40.329Z,13.20
2023-03-19T18:54:43.509Z,13.17
2023-03-19T18:56:48.434Z,13.21
2023-03-19T18:58:53.587Z,13.22
2023-03-19T19:00:56.917Z,13.22
2023-03-19T19:03:01.620Z,13.23
2023-03-19T19:05:05.509Z,13.21
2023-03-19T19:07:09.169Z,13.19
2023-03-19T19:09:12.518Z,13.10
2023-03-19T19:11:16.715Z,13.03
2023-03-19T19:13:22.359Z,13.01
2023-03-19T19:15:29.970Z,13.03
2023-03-19T19:17:33.377Z,13.04
2023-03-19T19:19:36.575Z,13.04
2023-03-19T19:21:39.681Z,13.04
2023-03-19T19:23:43.758Z,13.04
2023-03-19T19:25:50.978Z,13.01
2023-03-19T19:27:57.888Z,12.98
2023-03-19T19:30:01.497Z,12.97
2023-03-19T19:32:07.234Z,12.98
2023-03-19T19:34:12.360Z,12.98
2023-03-19T19:36:15.457Z,12.99
2023-03-19T19:38:18.709Z,12.99
2023-03-19T19:40:23.544Z,12.99
2023-03-19T19:42:26.691Z,12.97
2023-03-19T19:44:30.111Z,12.96
2023-03-19T19:46:33.554Z,12.96
2023-03-19T19:48:38.422Z,12.97
2023-03-19T19:50:41.676Z,12.97
2023-03-19T19:52:44.811Z,12.96
2023-03-19T19:54:48.578Z,12.95
2023-03-19T19:56:52.354Z,12.90
2023-03-19T19:58:57.463Z,12.86
2023-03-19T20:01:04.188Z,12.83
2023-03-19T20:03:07.792Z,12.83
2023-03-19T20:05:17.961Z,12.82
2023-03-19T20:07:21.140Z,12.82
2023-03-19T20:09:24.469Z,12.79
2023-03-19T20:11:27.894Z,12.78
2023-03-19T20:13:34.052Z,12.79
2023-03-19T20:15:37.539Z,12.79
2023-03-19T20:17:41.426Z,12.78
2023-03-19T20:19:45.016Z,12.72
2023-03-19T20:21:49.959Z,12.64
2023-03-19T20:23:55.446Z,12.61
2023-03-19T20:25:59.768Z,12.58
2023-03-19T20:28:03.810Z,12.57
2023-03-19T20:30:09.118Z,12.56
2023-03-19T20:32:26.226Z,12.55
2023-03-19T20:34:39.017Z,12.48
2023-03-19T20:36:42.767Z,12.48
2023-03-19T20:38:47.226Z,12.47
2023-03-19T20:40:52.895Z,12.48
2023-03-19T20:42:56.177Z,12.47
2023-03-19T20:44:59.938Z,12.45
2023-03-19T20:47:03.094Z,12.45
2023-03-19T20:49:06.333Z,12.45
2023-03-19T20:51:17.327Z,12.44
2023-03-19T20:53:20.588Z,12.42
2023-03-19T20:55:27.103Z,12.42
2023-03-19T20:57:30.852Z,12.44
2023-03-19T20:59:34.138Z,12.45
2023-03-19T21:01:37.377Z,12.46
2023-03-19T21:03:40.552Z,12.46
2023-03-19T21:05:43.814Z,12.45
2023-03-19T21:07:48.242Z,12.39
2023-03-19T21:09:51.444Z,12.33
2023-03-19T21:11:56.056Z,12.35
2023-03-19T21:13:59.391Z,12.34
2023-03-19T21:16:02.853Z,12.35
2023-03-19T21:18:06.145Z,12.35
2023-03-19T21:20:11.261Z,12.34
2023-03-19T21:22:15.217Z,12.32
2023-03-19T21:24:19.506Z,12.33
2023-03-19T21:26:23.159Z,12.32
2023-03-19T21:28:30.629Z,12.33
2023-03-19T21:30:35.292Z,12.33
2023-03-19T21:32:38.943Z,12.32
2023-03-19T21:34:41.993Z,12.33
2023-03-19T21:36:45.726Z,12.27
2023-03-19T21:38:50.848Z,12.26
2023-03-19T21:40:56.618Z,12.25
2023-03-19T21:43:02.135Z,12.23
2023-03-19T21:45:07.954Z,12.21
2023-03-19T21:47:13.347Z,12.16
2023-03-19T21:49:16.891Z,12.11
2023-03-19T21:51:20.415Z,12.08
2023-03-19T21:53:23.824Z,12.04
2023-03-19T21:55:31.701Z,12.01
2023-03-19T21:57:34.805Z,11.99
2023-03-19T21:59:38.656Z,11.97
2023-03-19T22:01:43.134Z,11.94
2023-03-19T22:03:46.584Z,11.92
2023-03-19T22:05:51.237Z,11.91
2023-03-19T22:07:54.735Z,11.88
2023-03-19T22:09:57.826Z,11.81
2023-03-19T22:12:01.412Z,11.75
2023-03-19T22:14:09.485Z,11.73
2023-03-19T22:16:18.795Z,11.73
2023-03-19T22:18:24.188Z,11.71
2023-03-19T22:20:27.380Z,11.73
2023-03-19T22:22:32.288Z,11.73
2023-03-19T22:24:35.543Z,11.72
2023-03-19T22:26:40.013Z,11.70
2023-03-19T22:28:43.126Z,11.67
2023-03-19T22:30:47.476Z,11.64
2023-03-19T22:32:50.674Z,11.63
2023-03-19T22:34:55.257Z,11.63
2023-03-19T22:36:58.483Z,11.61
2023-03-19T22:39:01.554Z,11.59
2023-03-19T22:41:04.923Z,11.60
2023-03-19T22:43:17.663Z,11.59
2023-03-19T22:45:25.052Z,11.59
2023-03-19T22:47:28.341Z,11.56
2023-03-19T22:49:32.086Z,11.57
2023-03-19T22:51:36.536Z,11.53
2023-03-19T22:53:39.639Z,11.51
2023-03-19T22:55:42.798Z,11.52
2023-03-19T22:57:46.324Z,11.51
2023-03-19T22:59:51.207Z,11.52
2023-03-19T23:01:54.355Z,11.48
2023-03-19T23:03:57.902Z,11.47
2023-03-19T23:06:03.414Z,11.48
2023-03-19T23:08:08.407Z,11.49
2023-03-19T23:10:17.133Z,11.49
2023-03-19T23:12:20.828Z,11.48
2023-03-19T23:14:31.706Z,11.48
2023-03-19T23:16:34.935Z,11.45
2023-03-19T23:18:38.491Z,11.42
2023-03-19T23:20:41.926Z,11.43
2023-03-19T23:22:45.777Z,11.45
2023-03-19T23:24:50.519Z,11.43
2023-03-19T23:26:55.651Z,11.43
2023-03-19T23:29:02.660Z,11.44
2023-03-19T23:31:07.297Z,11.44
2023-03-19T23:33:11.689Z,11.42
2023-03-19T23:35:17.754Z,11.43
2023-03-19T23:37:21.390Z,11.44
2023-03-19T23:39:25.577Z,11.44
2023-03-19T23:41:30.139Z,11.42
2023-03-19T23:43:33.442Z,11.41
2023-03-19T23:45:38.978Z,11.41
2023-03-19T23:47:42.035Z,11.41
2023-03-19T23:49:45.093Z,11.40
2023-03-19T23:51:48.186Z,11.40
2023-03-19T23:53:51.311Z,11.43
2023-03-19T23:55:56.052Z,11.44
2023-03-19T23:58:00.894Z,11.45
